sensor_id;sensor_type;location;lat;lon;timestamp;temperature;humidity
9425;DHT22;17139;52.140;11.636;2023-08-17T00:02:20;19.10;69.50
9425;DHT22;17139;52.140;11.636;2023-08-17T00:04:47;19.00;69.70
9425;DHT22;17139;52.140;11.636;2023-08-17T00:07:14;19.00;69.60
9425;DHT22;17139;52.140;11.636;2023-08-17T00:09:41;18.90;69.70
9425;DHT22;17139;52.140;11.636;2023-08-17T00:12:08;18.90;69.80
9425;DHT22;17139;52.140;11.636;2023-08-17T00:14:37;19.00;69.90
9425;DHT22;17139;52.140;11.636;2023-08-17T00:17:04;19.00;70.00
9425;DHT22;17139;52.140;11.636;2023-08-17T00:19:31;19.70;71.00
9425;DHT22;17139;52.140;11.636;2023-08-17T00:21:58;19.50;69.60
9425;DHT22;17139;52.140;11.636;2023-08-17T00:24:25;19.30;69.70
9425;DHT22;17139;52.140;11.636;2023-08-17T00:26:55;19.20;70.10
9425;DHT22;17139;52.140;11.636;2023-08-17T00:29:22;19.20;70.20
9425;DHT22;17139;52.140;11.636;2023-08-17T00:31:50;19.10;70.10
9425;DHT22;17139;52.140;11.636;2023-08-17T00:34:18;19.20;70.30
9425;DHT22;17139;52.140;11.636;2023-08-17T00:36:45;19.80;71.30
9425;DHT22;17139;52.140;11.636;2023-08-17T00:39:12;19.60;70.00
9425;DHT22;17139;52.140;11.636;2023-08-17T00:41:40;19.50;70.30
9425;DHT22;17139;52.140;11.636;2023-08-17T00:44:07;19.30;69.70
9425;DHT22;17139;52.140;11.636;2023-08-17T00:46:34;19.20;70.10
9425;DHT22;17139;52.140;11.636;2023-08-17T00:49:02;19.10;70.20
9425;DHT22;17139;52.140;11.636;2023-08-17T00:51:30;19.10;70.30
9425;DHT22;17139;52.140;11.636;2023-08-17T00:53:59;19.00;70.30
9425;DHT22;17139;52.140;11.636;2023-08-17T00:56:26;19.00;70.30
9425;DHT22;17139;52.140;11.636;2023-08-17T00:58:54;19.00;70.30
9425;DHT22;17139;52.140;11.636;2023-08-17T01:01:23;19.80;71.10
9425;DHT22;17139;52.140;11.636;2023-08-17T01:03:50;19.60;70.00
9425;DHT22;17139;52.140;11.636;2023-08-17T01:06:18;19.50;70.80
9425;DHT22;17139;52.140;11.636;2023-08-17T01:08:46;19.40;70.30
9425;DHT22;17139;52.140;11.636;2023-08-17T01:11:20;19.20;70.40
9425;DHT22;17139;52.140;11.636;2023-08-17T01:13:54;19.20;70.60
9425;DHT22;17139;52.140;11.636;2023-08-17T01:16:27;19.10;70.60
9425;DHT22;17139;52.140;11.636;2023-08-17T01:18:55;19.10;70.60
9425;DHT22;17139;52.140;11.636;2023-08-17T01:21:34;19.10;70.60
9425;DHT22;17139;52.140;11.636;2023-08-17T01:24:05;19.10;70.50
9425;DHT22;17139;52.140;11.636;2023-08-17T01:26:32;19.90;70.90
9425;DHT22;17139;52.140;11.636;2023-08-17T01:28:59;19.70;70.00
9425;DHT22;17139;52.140;11.636;2023-08-17T01:31:31;19.60;70.60
9425;DHT22;17139;52.140;11.636;2023-08-17T01:34:03;19.50;70.30
9425;DHT22;17139;52.140;11.636;2023-08-17T01:36:33;19.40;70.40
9425;DHT22;17139;52.140;11.636;2023-08-17T01:39:04;19.30;70.50
9425;DHT22;17139;52.140;11.636;2023-08-17T01:41:33;19.20;70.50
9425;DHT22;17139;52.140;11.636;2023-08-17T01:44:00;19.20;70.60
9425;DHT22;17139;52.140;11.636;2023-08-17T01:46:31;19.20;70.50
9425;DHT22;17139;52.140;11.636;2023-08-17T01:48:58;19.10;70.40
9425;DHT22;17139;52.140;11.636;2023-08-17T01:51:25;19.80;71.10
9425;DHT22;17139;52.140;11.636;2023-08-17T01:53:53;19.60;70.00
9425;DHT22;17139;52.140;11.636;2023-08-17T01:56:21;20.10;70.50
9425;DHT22;17139;52.140;11.636;2023-08-17T01:58:48;19.80;69.70
9425;DHT22;17139;52.140;11.636;2023-08-17T02:01:15;19.50;69.90
9425;DHT22;17139;52.140;11.636;2023-08-17T02:03:42;19.30;70.20
9425;DHT22;17139;52.140;11.636;2023-08-17T02:06:09;19.10;70.60
9425;DHT22;17139;52.140;11.636;2023-08-17T02:08:37;18.90;70.60
9425;DHT22;17139;52.140;11.636;2023-08-17T02:11:04;18.80;70.90
9425;DHT22;17139;52.140;11.636;2023-08-17T02:13:32;19.10;71.80
9425;DHT22;17139;52.140;11.636;2023-08-17T02:15:59;19.00;70.70
9425;DHT22;17139;52.140;11.636;2023-08-17T02:18:26;18.80;70.70
9425;DHT22;17139;52.140;11.636;2023-08-17T02:20:56;19.60;71.50
9425;DHT22;17139;52.140;11.636;2023-08-17T02:23:23;19.20;70.50
9425;DHT22;17139;52.140;11.636;2023-08-17T02:25:50;19.00;71.00
9425;DHT22;17139;52.140;11.636;2023-08-17T02:28:17;18.80;71.20
9425;DHT22;17139;52.140;11.636;2023-08-17T02:30:46;18.70;71.50
9425;DHT22;17139;52.140;11.636;2023-08-17T02:33:13;18.70;71.70
9425;DHT22;17139;52.140;11.636;2023-08-17T02:35:40;18.70;71.90
9425;DHT22;17139;52.140;11.636;2023-08-17T02:38:07;18.90;72.70
9425;DHT22;17139;52.140;11.636;2023-08-17T02:40:34;18.80;71.60
9425;DHT22;17139;52.140;11.636;2023-08-17T02:43:01;18.80;72.20
9425;DHT22;17139;52.140;11.636;2023-08-17T02:45:28;18.80;71.80
9425;DHT22;17139;52.140;11.636;2023-08-17T02:47:57;18.70;72.00
9425;DHT22;17139;52.140;11.636;2023-08-17T02:50:24;18.70;71.80
9425;DHT22;17139;52.140;11.636;2023-08-17T02:52:51;18.50;72.00
9425;DHT22;17139;52.140;11.636;2023-08-17T02:55:18;18.50;72.30
9425;DHT22;17139;52.140;11.636;2023-08-17T02:57:45;18.50;72.40
9425;DHT22;17139;52.140;11.636;2023-08-17T03:00:13;18.50;72.30
9425;DHT22;17139;52.140;11.636;2023-08-17T03:02:40;18.90;73.30
9425;DHT22;17139;52.140;11.636;2023-08-17T03:05:08;18.70;72.60
9425;DHT22;17139;52.140;11.636;2023-08-17T03:07:35;18.50;72.20
9425;DHT22;17139;52.140;11.636;2023-08-17T03:10:03;18.30;72.50
9425;DHT22;17139;52.140;11.636;2023-08-17T03:12:30;18.20;72.60
9425;DHT22;17139;52.140;11.636;2023-08-17T03:14:57;18.10;72.80
9425;DHT22;17139;52.140;11.636;2023-08-17T03:17:24;18.00;73.20
9425;DHT22;17139;52.140;11.636;2023-08-17T03:19:51;18.00;73.20
9425;DHT22;17139;52.140;11.636;2023-08-17T03:22:19;18.00;73.30
9425;DHT22;17139;52.140;11.636;2023-08-17T03:24:46;18.00;73.10
9425;DHT22;17139;52.140;11.636;2023-08-17T03:27:13;18.10;73.80
9425;DHT22;17139;52.140;11.636;2023-08-17T03:29:40;18.00;72.80
9425;DHT22;17139;52.140;11.636;2023-08-17T03:32:07;17.80;73.10
9425;DHT22;17139;52.140;11.636;2023-08-17T03:34:34;17.70;73.20
9425;DHT22;17139;52.140;11.636;2023-08-17T03:37:05;17.60;73.10
9425;DHT22;17139;52.140;11.636;2023-08-17T03:39:34;17.50;73.20
9425;DHT22;17139;52.140;11.636;2023-08-17T03:42:00;17.50;73.40
9425;DHT22;17139;52.140;11.636;2023-08-17T03:44:27;17.40;73.30
9425;DHT22;17139;52.140;11.636;2023-08-17T03:46:54;17.40;73.30
9425;DHT22;17139;52.140;11.636;2023-08-17T03:49:21;17.40;73.40
9425;DHT22;17139;52.140;11.636;2023-08-17T03:51:48;17.50;73.50
9425;DHT22;17139;52.140;11.636;2023-08-17T03:54:17;17.40;73.20
9425;DHT22;17139;52.140;11.636;2023-08-17T03:56:45;17.40;73.40
9425;DHT22;17139;52.140;11.636;2023-08-17T03:59:14;18.30;74.70
9425;DHT22;17139;52.140;11.636;2023-08-17T04:01:41;17.90;73.20
9425;DHT22;17139;52.140;11.636;2023-08-17T04:04:09;17.60;73.30
9425;DHT22;17139;52.140;11.636;2023-08-17T04:06:36;17.50;73.70
9425;DHT22;17139;52.140;11.636;2023-08-17T04:09:05;17.30;73.80
9425;DHT22;17139;52.140;11.636;2023-08-17T04:11:34;17.30;74.20
9425;DHT22;17139;52.140;11.636;2023-08-17T04:14:03;17.20;74.40
9425;DHT22;17139;52.140;11.636;2023-08-17T04:16:31;17.30;75.00
9425;DHT22;17139;52.140;11.636;2023-08-17T04:18:58;17.20;74.10
9425;DHT22;17139;52.140;11.636;2023-08-17T04:21:25;17.20;74.70
9425;DHT22;17139;52.140;11.636;2023-08-17T04:23:53;17.10;74.20
9425;DHT22;17139;52.140;11.636;2023-08-17T04:26:20;17.10;74.40
9425;DHT22;17139;52.140;11.636;2023-08-17T04:28:47;17.00;74.60
9425;DHT22;17139;52.140;11.636;2023-08-17T04:31:15;16.90;74.50
9425;DHT22;17139;52.140;11.636;2023-08-17T04:33:42;16.90;74.50
9425;DHT22;17139;52.140;11.636;2023-08-17T04:36:09;16.90;74.50
9425;DHT22;17139;52.140;11.636;2023-08-17T04:38:36;16.90;74.70
9425;DHT22;17139;52.140;11.636;2023-08-17T04:41:03;16.90;74.60
9425;DHT22;17139;52.140;11.636;2023-08-17T04:43:30;16.90;74.60
9425;DHT22;17139;52.140;11.636;2023-08-17T04:45:58;17.40;76.10
9425;DHT22;17139;52.140;11.636;2023-08-17T04:48:27;17.30;74.50
9425;DHT22;17139;52.140;11.636;2023-08-17T04:50:54;17.20;74.60
9425;DHT22;17139;52.140;11.636;2023-08-17T04:53:21;17.10;74.80
9425;DHT22;17139;52.140;11.636;2023-08-17T04:55:47;17.10;74.90
9425;DHT22;17139;52.140;11.636;2023-08-17T04:58:14;17.10;75.00
9425;DHT22;17139;52.140;11.636;2023-08-17T05:00:41;17.10;75.00
9425;DHT22;17139;52.140;11.636;2023-08-17T05:03:08;17.00;74.80
9425;DHT22;17139;52.140;11.636;2023-08-17T05:05:37;17.90;76.60
9425;DHT22;17139;52.140;11.636;2023-08-17T05:08:04;18.20;76.20
9425;DHT22;17139;52.140;11.636;2023-08-17T05:10:31;18.10;75.70
9425;DHT22;17139;52.140;11.636;2023-08-17T05:12:58;18.60;75.70
9425;DHT22;17139;52.140;11.636;2023-08-17T05:15:25;18.20;74.70
9425;DHT22;17139;52.140;11.636;2023-08-17T05:17:52;18.20;75.70
9425;DHT22;17139;52.140;11.636;2023-08-17T05:20:19;17.90;75.00
9425;DHT22;17139;52.140;11.636;2023-08-17T05:22:48;17.60;75.50
9425;DHT22;17139;52.140;11.636;2023-08-17T05:25:15;17.40;76.00
9425;DHT22;17139;52.140;11.636;2023-08-17T05:27:42;18.10;76.40
9425;DHT22;17139;52.140;11.636;2023-08-17T05:30:09;17.80;75.40
9425;DHT22;17139;52.140;11.636;2023-08-17T05:32:36;18.20;77.00
9425;DHT22;17139;52.140;11.636;2023-08-17T05:35:04;17.90;76.00
9425;DHT22;17139;52.140;11.636;2023-08-17T05:37:32;17.80;76.60
9425;DHT22;17139;52.140;11.636;2023-08-17T05:40:00;17.70;76.80
9425;DHT22;17139;52.140;11.636;2023-08-17T05:42:27;17.70;76.90
9425;DHT22;17139;52.140;11.636;2023-08-17T05:44:54;17.90;77.60
9425;DHT22;17139;52.140;11.636;2023-08-17T05:47:21;17.90;76.70
9425;DHT22;17139;52.140;11.636;2023-08-17T05:49:48;18.80;77.00
9425;DHT22;17139;52.140;11.636;2023-08-17T05:52:15;18.50;76.00
9425;DHT22;17139;52.140;11.636;2023-08-17T05:54:42;18.30;76.30
9425;DHT22;17139;52.140;11.636;2023-08-17T05:57:10;18.20;76.50
9425;DHT22;17139;52.140;11.636;2023-08-17T05:59:37;18.10;76.90
9425;DHT22;17139;52.140;11.636;2023-08-17T06:02:04;18.10;76.90
9425;DHT22;17139;52.140;11.636;2023-08-17T06:04:32;18.10;76.60
9425;DHT22;17139;52.140;11.636;2023-08-17T06:06:59;18.50;77.30
9425;DHT22;17139;52.140;11.636;2023-08-17T06:09:26;18.40;76.20
9425;DHT22;17139;52.140;11.636;2023-08-17T06:11:53;18.30;76.60
9425;DHT22;17139;52.140;11.636;2023-08-17T06:14:21;18.30;76.60
9425;DHT22;17139;52.140;11.636;2023-08-17T06:16:49;18.20;76.70
9425;DHT22;17139;52.140;11.636;2023-08-17T06:19:16;18.20;76.70
9425;DHT22;17139;52.140;11.636;2023-08-17T06:21:43;18.20;76.80
9425;DHT22;17139;52.140;11.636;2023-08-17T06:24:09;18.20;76.80
9425;DHT22;17139;52.140;11.636;2023-08-17T06:26:36;18.20;76.60
9425;DHT22;17139;52.140;11.636;2023-08-17T06:29:04;18.30;76.70
9425;DHT22;17139;52.140;11.636;2023-08-17T06:31:32;18.20;76.10
9425;DHT22;17139;52.140;11.636;2023-08-17T06:33:59;18.40;77.00
9425;DHT22;17139;52.140;11.636;2023-08-17T06:36:30;18.40;76.30
9425;DHT22;17139;52.140;11.636;2023-08-17T06:38:57;18.30;76.20
9425;DHT22;17139;52.140;11.636;2023-08-17T06:41:24;18.30;76.20
9425;DHT22;17139;52.140;11.636;2023-08-17T06:43:52;18.20;76.20
9425;DHT22;17139;52.140;11.636;2023-08-17T06:46:19;18.20;76.20
9425;DHT22;17139;52.140;11.636;2023-08-17T06:48:47;18.20;76.90
9425;DHT22;17139;52.140;11.636;2023-08-17T06:51:14;18.20;76.30
9425;DHT22;17139;52.140;11.636;2023-08-17T06:53:41;18.20;76.20
9425;DHT22;17139;52.140;11.636;2023-08-17T06:56:09;18.20;76.30
9425;DHT22;17139;52.140;11.636;2023-08-17T06:58:36;19.10;76.80
9425;DHT22;17139;52.140;11.636;2023-08-17T07:01:03;18.90;75.90
9425;DHT22;17139;52.140;11.636;2023-08-17T07:03:30;18.80;76.00
9425;DHT22;17139;52.140;11.636;2023-08-17T07:05:59;18.70;75.90
9425;DHT22;17139;52.140;11.636;2023-08-17T07:08:26;18.70;76.10
9425;DHT22;17139;52.140;11.636;2023-08-17T07:10:53;18.70;76.30
9425;DHT22;17139;52.140;11.636;2023-08-17T07:13:19;18.70;76.50
9425;DHT22;17139;52.140;11.636;2023-08-17T07:15:47;19.30;76.70
9425;DHT22;17139;52.140;11.636;2023-08-17T07:18:14;19.20;75.50
9425;DHT22;17139;52.140;11.636;2023-08-17T07:20:40;19.10;75.80
9425;DHT22;17139;52.140;11.636;2023-08-17T07:23:09;19.10;76.20
9425;DHT22;17139;52.140;11.636;2023-08-17T07:25:36;19.10;76.20
9425;DHT22;17139;52.140;11.636;2023-08-17T07:28:03;19.50;76.10
9425;DHT22;17139;52.140;11.636;2023-08-17T07:30:30;19.80;75.20
9425;DHT22;17139;52.140;11.636;2023-08-17T07:32:57;19.60;75.00
9425;DHT22;17139;52.140;11.636;2023-08-17T07:35:24;19.40;75.30
9425;DHT22;17139;52.140;11.636;2023-08-17T07:37:51;20.20;74.70
9425;DHT22;17139;52.140;11.636;2023-08-17T07:40:20;19.90;74.50
9425;DHT22;17139;52.140;11.636;2023-08-17T07:42:47;20.50;73.40
9425;DHT22;17139;52.140;11.636;2023-08-17T07:45:14;20.10;73.90
9425;DHT22;17139;52.140;11.636;2023-08-17T07:47:41;19.90;74.40
9425;DHT22;17139;52.140;11.636;2023-08-17T07:50:08;19.70;74.80
9425;DHT22;17139;52.140;11.636;2023-08-17T07:52:35;19.70;75.20
9425;DHT22;17139;52.140;11.636;2023-08-17T07:55:03;19.70;75.50
9425;DHT22;17139;52.140;11.636;2023-08-17T07:57:32;19.80;75.50
9425;DHT22;17139;52.140;11.636;2023-08-17T07:59:59;20.50;74.40
9425;DHT22;17139;52.140;11.636;2023-08-17T08:02:26;20.40;74.20
9425;DHT22;17139;52.140;11.636;2023-08-17T08:04:53;20.60;74.50
9425;DHT22;17139;52.140;11.636;2023-08-17T08:07:20;20.80;74.20
9425;DHT22;17139;52.140;11.636;2023-08-17T08:09:47;20.90;73.80
9425;DHT22;17139;52.140;11.636;2023-08-17T08:12:14;21.10;73.60
9425;DHT22;17139;52.140;11.636;2023-08-17T08:14:42;21.30;73.20
9425;DHT22;17139;52.140;11.636;2023-08-17T08:17:09;21.40;73.10
9425;DHT22;17139;52.140;11.636;2023-08-17T08:19:36;21.60;72.60
9425;DHT22;17139;52.140;11.636;2023-08-17T08:22:03;21.70;72.10
9425;DHT22;17139;52.140;11.636;2023-08-17T08:24:30;21.60;72.00
9425;DHT22;17139;52.140;11.636;2023-08-17T08:27:00;21.60;72.30
9425;DHT22;17139;52.140;11.636;2023-08-17T08:29:27;22.20;70.70
9425;DHT22;17139;52.140;11.636;2023-08-17T08:31:56;22.00;70.90
9425;DHT22;17139;52.140;11.636;2023-08-17T08:34:25;21.80;71.80
9425;DHT22;17139;52.140;11.636;2023-08-17T08:36:52;21.70;72.00
9425;DHT22;17139;52.140;11.636;2023-08-17T08:39:19;21.70;72.20
9425;DHT22;17139;52.140;11.636;2023-08-17T08:41:46;21.80;72.20
9425;DHT22;17139;52.140;11.636;2023-08-17T08:44:14;22.00;72.30
9425;DHT22;17139;52.140;11.636;2023-08-17T08:46:41;22.30;71.00
9425;DHT22;17139;52.140;11.636;2023-08-17T08:49:11;22.40;70.90
9425;DHT22;17139;52.140;11.636;2023-08-17T08:51:43;22.30;70.90
9425;DHT22;17139;52.140;11.636;2023-08-17T08:54:13;22.30;71.10
9425;DHT22;17139;52.140;11.636;2023-08-17T08:56:43;22.10;71.10
9425;DHT22;17139;52.140;11.636;2023-08-17T08:59:11;22.00;71.60
9425;DHT22;17139;52.140;11.636;2023-08-17T09:01:38;21.70;72.00
9425;DHT22;17139;52.140;11.636;2023-08-17T09:04:06;21.60;72.50
9425;DHT22;17139;52.140;11.636;2023-08-17T09:06:34;21.50;72.60
9425;DHT22;17139;52.140;11.636;2023-08-17T09:09:03;21.40;73.90
9425;DHT22;17139;52.140;11.636;2023-08-17T09:11:30;21.40;73.20
9425;DHT22;17139;52.140;11.636;2023-08-17T09:13:57;21.40;73.20
9425;DHT22;17139;52.140;11.636;2023-08-17T09:16:24;22.00;71.50
9425;DHT22;17139;52.140;11.636;2023-08-17T09:18:53;21.90;71.70
9425;DHT22;17139;52.140;11.636;2023-08-17T09:21:21;21.90;72.20
9425;DHT22;17139;52.140;11.636;2023-08-17T09:23:52;21.90;72.20
9425;DHT22;17139;52.140;11.636;2023-08-17T09:26:20;22.10;71.80
9425;DHT22;17139;52.140;11.636;2023-08-17T09:28:49;22.10;72.30
9425;DHT22;17139;52.140;11.636;2023-08-17T09:31:17;22.30;72.20
9425;DHT22;17139;52.140;11.636;2023-08-17T09:33:49;22.50;71.50
9425;DHT22;17139;52.140;11.636;2023-08-17T09:36:20;22.70;70.80
9425;DHT22;17139;52.140;11.636;2023-08-17T09:38:48;22.60;70.70
9425;DHT22;17139;52.140;11.636;2023-08-17T09:41:17;23.20;68.40
9425;DHT22;17139;52.140;11.636;2023-08-17T09:43:44;23.00;69.50
9425;DHT22;17139;52.140;11.636;2023-08-17T09:46:12;22.80;70.10
9425;DHT22;17139;52.140;11.636;2023-08-17T09:48:39;22.60;70.30
9425;DHT22;17139;52.140;11.636;2023-08-17T09:51:06;22.40;70.90
9425;DHT22;17139;52.140;11.636;2023-08-17T09:53:35;22.10;71.70
9425;DHT22;17139;52.140;11.636;2023-08-17T09:56:05;21.90;72.20
9425;DHT22;17139;52.140;11.636;2023-08-17T09:58:35;21.90;72.70
9425;DHT22;17139;52.140;11.636;2023-08-17T10:01:03;21.90;72.70
9425;DHT22;17139;52.140;11.636;2023-08-17T10:03:33;22.00;72.30
9425;DHT22;17139;52.140;11.636;2023-08-17T10:06:04;22.90;69.40
9425;DHT22;17139;52.140;11.636;2023-08-17T10:08:33;22.70;70.30
9425;DHT22;17139;52.140;11.636;2023-08-17T10:11:04;22.50;71.00
9425;DHT22;17139;52.140;11.636;2023-08-17T10:13:39;22.30;71.10
9425;DHT22;17139;52.140;11.636;2023-08-17T10:16:15;22.20;71.60
9425;DHT22;17139;52.140;11.636;2023-08-17T10:18:53;22.00;72.30
9425;DHT22;17139;52.140;11.636;2023-08-17T10:21:29;21.80;72.40
9425;DHT22;17139;52.140;11.636;2023-08-17T10:23:58;22.20;71.10
9425;DHT22;17139;52.140;11.636;2023-08-17T10:26:25;21.90;71.60
9425;DHT22;17139;52.140;11.636;2023-08-17T10:28:54;21.90;71.90
9425;DHT22;17139;52.140;11.636;2023-08-17T10:31:24;21.80;72.10
9425;DHT22;17139;52.140;11.636;2023-08-17T10:33:52;21.70;72.60
9425;DHT22;17139;52.140;11.636;2023-08-17T10:36:19;21.80;72.70
9425;DHT22;17139;52.140;11.636;2023-08-17T10:38:47;21.90;72.40
9425;DHT22;17139;52.140;11.636;2023-08-17T10:41:15;22.00;72.30
9425;DHT22;17139;52.140;11.636;2023-08-17T10:43:56;22.70;69.70
9425;DHT22;17139;52.140;11.636;2023-08-17T10:46:32;23.10;68.50
9425;DHT22;17139;52.140;11.636;2023-08-17T10:49:02;23.40;68.30
9425;DHT22;17139;52.140;11.636;2023-08-17T10:51:31;23.00;69.20
9425;DHT22;17139;52.140;11.636;2023-08-17T10:53:59;22.70;70.20
9425;DHT22;17139;52.140;11.636;2023-08-17T10:56:28;22.50;70.80
9425;DHT22;17139;52.140;11.636;2023-08-17T10:58:59;22.30;71.30
9425;DHT22;17139;52.140;11.636;2023-08-17T11:01:39;22.40;71.60
9425;DHT22;17139;52.140;11.636;2023-08-17T11:04:11;22.80;69.70
9425;DHT22;17139;52.140;11.636;2023-08-17T11:06:38;22.50;70.50
9425;DHT22;17139;52.140;11.636;2023-08-17T11:09:07;22.60;70.00
9425;DHT22;17139;52.140;11.636;2023-08-17T11:11:34;22.40;70.60
9425;DHT22;17139;52.140;11.636;2023-08-17T11:14:03;22.20;71.20
9425;DHT22;17139;52.140;11.636;2023-08-17T11:16:30;22.10;71.50
9425;DHT22;17139;52.140;11.636;2023-08-17T11:18:57;22.10;71.90
9425;DHT22;17139;52.140;11.636;2023-08-17T11:21:25;22.10;72.20
9425;DHT22;17139;52.140;11.636;2023-08-17T11:23:56;22.10;72.00
9425;DHT22;17139;52.140;11.636;2023-08-17T11:26:24;22.10;72.10
9425;DHT22;17139;52.140;11.636;2023-08-17T11:28:51;22.00;72.30
9425;DHT22;17139;52.140;11.636;2023-08-17T11:31:20;22.00;72.30
9425;DHT22;17139;52.140;11.636;2023-08-17T11:33:47;22.80;69.90
9425;DHT22;17139;52.140;11.636;2023-08-17T11:36:16;22.70;70.60
9425;DHT22;17139;52.140;11.636;2023-08-17T11:38:43;22.70;70.80
9425;DHT22;17139;52.140;11.636;2023-08-17T11:41:10;22.70;70.50
9425;DHT22;17139;52.140;11.636;2023-08-17T11:43:37;22.80;70.50
9425;DHT22;17139;52.140;11.636;2023-08-17T11:46:05;22.80;70.80
9425;DHT22;17139;52.140;11.636;2023-08-17T11:48:34;22.90;70.40
9425;DHT22;17139;52.140;11.636;2023-08-17T11:51:01;22.80;70.30
9425;DHT22;17139;52.140;11.636;2023-08-17T11:53:33;22.80;70.60
9425;DHT22;17139;52.140;11.636;2023-08-17T11:56:00;22.80;70.90
9425;DHT22;17139;52.140;11.636;2023-08-17T11:58:40;22.80;70.90
9425;DHT22;17139;52.140;11.636;2023-08-17T12:01:09;22.80;70.80
9425;DHT22;17139;52.140;11.636;2023-08-17T12:03:38;22.70;71.30
9425;DHT22;17139;52.140;11.636;2023-08-17T12:06:06;22.70;71.30
9425;DHT22;17139;52.140;11.636;2023-08-17T12:08:33;22.90;71.60
9425;DHT22;17139;52.140;11.636;2023-08-17T12:11:00;23.10;71.30
9425;DHT22;17139;52.140;11.636;2023-08-17T12:13:33;24.00;67.90
9425;DHT22;17139;52.140;11.636;2023-08-17T12:16:00;23.90;68.30
9425;DHT22;17139;52.140;11.636;2023-08-17T12:18:27;24.40;66.50
9425;DHT22;17139;52.140;11.636;2023-08-17T12:20:56;24.20;67.70
9425;DHT22;17139;52.140;11.636;2023-08-17T12:23:23;24.00;68.20
9425;DHT22;17139;52.140;11.636;2023-08-17T12:25:53;24.00;68.90
9425;DHT22;17139;52.140;11.636;2023-08-17T12:28:21;24.10;68.80
9425;DHT22;17139;52.140;11.636;2023-08-17T12:30:57;24.10;68.80
9425;DHT22;17139;52.140;11.636;2023-08-17T12:33:26;23.90;68.50
9425;DHT22;17139;52.140;11.636;2023-08-17T12:35:53;23.70;68.80
9425;DHT22;17139;52.140;11.636;2023-08-17T12:38:23;23.60;69.40
9425;DHT22;17139;52.140;11.636;2023-08-17T12:40:50;23.30;69.80
9425;DHT22;17139;52.140;11.636;2023-08-17T12:43:17;24.00;67.00
9425;DHT22;17139;52.140;11.636;2023-08-17T12:45:44;23.50;68.30
9425;DHT22;17139;52.140;11.636;2023-08-17T12:48:11;23.30;69.20
9425;DHT22;17139;52.140;11.636;2023-08-17T12:50:38;23.10;69.70
9425;DHT22;17139;52.140;11.636;2023-08-17T12:53:05;22.90;69.90
9425;DHT22;17139;52.140;11.636;2023-08-17T12:55:33;22.80;70.00
9425;DHT22;17139;52.140;11.636;2023-08-17T12:58:01;22.70;70.40
9425;DHT22;17139;52.140;11.636;2023-08-17T13:00:28;22.80;70.50
9425;DHT22;17139;52.140;11.636;2023-08-17T13:02:55;22.90;70.40
9425;DHT22;17139;52.140;11.636;2023-08-17T13:05:22;23.00;70.20
9425;DHT22;17139;52.140;11.636;2023-08-17T13:07:49;23.00;70.10
9425;DHT22;17139;52.140;11.636;2023-08-17T13:10:16;23.00;70.10
9425;DHT22;17139;52.140;11.636;2023-08-17T13:12:45;22.90;70.10
9425;DHT22;17139;52.140;11.636;2023-08-17T13:15:12;22.80;70.80
9425;DHT22;17139;52.140;11.636;2023-08-17T13:17:39;22.80;70.40
9425;DHT22;17139;52.140;11.636;2023-08-17T13:20:08;22.80;70.70
9425;DHT22;17139;52.140;11.636;2023-08-17T13:22:36;22.80;70.70
9425;DHT22;17139;52.140;11.636;2023-08-17T13:25:03;22.80;70.80
9425;DHT22;17139;52.140;11.636;2023-08-17T13:27:31;22.90;70.70
9425;DHT22;17139;52.140;11.636;2023-08-17T13:29:59;22.90;70.50
9425;DHT22;17139;52.140;11.636;2023-08-17T13:32:27;23.00;70.20
9425;DHT22;17139;52.140;11.636;2023-08-17T13:34:54;23.10;70.20
9425;DHT22;17139;52.140;11.636;2023-08-17T13:37:21;23.10;70.20
9425;DHT22;17139;52.140;11.636;2023-08-17T13:39:48;23.20;70.20
9425;DHT22;17139;52.140;11.636;2023-08-17T13:42:15;23.20;69.80
9425;DHT22;17139;52.140;11.636;2023-08-17T13:44:43;23.20;70.00
9425;DHT22;17139;52.140;11.636;2023-08-17T13:47:12;23.20;70.10
9425;DHT22;17139;52.140;11.636;2023-08-17T13:49:39;23.20;70.80
9425;DHT22;17139;52.140;11.636;2023-08-17T13:52:06;23.10;70.10
9425;DHT22;17139;52.140;11.636;2023-08-17T13:54:33;23.10;70.30
9425;DHT22;17139;52.140;11.636;2023-08-17T13:57:00;23.10;70.70
9425;DHT22;17139;52.140;11.636;2023-08-17T13:59:28;23.10;70.60
9425;DHT22;17139;52.140;11.636;2023-08-17T14:01:55;23.10;70.80
9425;DHT22;17139;52.140;11.636;2023-08-17T14:04:24;23.10;70.60
9425;DHT22;17139;52.140;11.636;2023-08-17T14:06:51;23.10;70.60
9425;DHT22;17139;52.140;11.636;2023-08-17T14:09:18;23.10;70.60
9425;DHT22;17139;52.140;11.636;2023-08-17T14:11:45;23.10;70.60
9425;DHT22;17139;52.140;11.636;2023-08-17T14:14:12;23.70;68.30
9425;DHT22;17139;52.140;11.636;2023-08-17T14:16:39;23.40;68.70
9425;DHT22;17139;52.140;11.636;2023-08-17T14:19:06;23.20;69.20
9425;DHT22;17139;52.140;11.636;2023-08-17T14:21:34;23.80;67.10
9425;DHT22;17139;52.140;11.636;2023-08-17T14:24:01;23.50;68.30
9425;DHT22;17139;52.140;11.636;2023-08-17T14:26:28;23.40;69.20
9425;DHT22;17139;52.140;11.636;2023-08-17T14:28:55;23.40;69.60
9425;DHT22;17139;52.140;11.636;2023-08-17T14:31:22;23.50;69.60
9425;DHT22;17139;52.140;11.636;2023-08-17T14:33:49;23.50;69.40
9425;DHT22;17139;52.140;11.636;2023-08-17T14:36:16;23.60;69.40
9425;DHT22;17139;52.140;11.636;2023-08-17T14:38:45;24.10;66.70
9425;DHT22;17139;52.140;11.636;2023-08-17T14:41:12;24.00;67.60
9425;DHT22;17139;52.140;11.636;2023-08-17T14:43:39;23.80;67.90
9425;DHT22;17139;52.140;11.636;2023-08-17T14:46:06;23.70;68.20
9425;DHT22;17139;52.140;11.636;2023-08-17T14:48:33;23.50;68.60
9425;DHT22;17139;52.140;11.636;2023-08-17T14:51:00;23.40;69.10
9425;DHT22;17139;52.140;11.636;2023-08-17T14:53:27;23.40;69.20
9425;DHT22;17139;52.140;11.636;2023-08-17T14:55:56;23.30;69.30
9425;DHT22;17139;52.140;11.636;2023-08-17T14:58:23;23.30;69.40
9425;DHT22;17139;52.140;11.636;2023-08-17T15:00:50;23.30;69.50
9425;DHT22;17139;52.140;11.636;2023-08-17T15:03:17;23.90;67.20
9425;DHT22;17139;52.140;11.636;2023-08-17T15:05:43;23.60;68.20
9425;DHT22;17139;52.140;11.636;2023-08-17T15:08:10;23.50;68.50
9425;DHT22;17139;52.140;11.636;2023-08-17T15:10:37;23.40;69.00
9425;DHT22;17139;52.140;11.636;2023-08-17T15:13:06;23.30;69.20
9425;DHT22;17139;52.140;11.636;2023-08-17T15:15:33;23.40;69.30
9425;DHT22;17139;52.140;11.636;2023-08-17T15:18:00;23.40;69.10
9425;DHT22;17139;52.140;11.636;2023-08-17T15:20:27;23.40;69.10
9425;DHT22;17139;52.140;11.636;2023-08-17T15:22:55;23.40;69.30
9425;DHT22;17139;52.140;11.636;2023-08-17T15:25:22;23.50;69.30
9425;DHT22;17139;52.140;11.636;2023-08-17T15:27:49;23.50;69.10
9425;DHT22;17139;52.140;11.636;2023-08-17T15:30:18;23.60;68.90
9425;DHT22;17139;52.140;11.636;2023-08-17T15:32:45;23.90;68.00
9425;DHT22;17139;52.140;11.636;2023-08-17T15:35:12;24.00;68.30